Time;durP1;ratioP1;P1;durP2;ratioP2;P2;SDS_P1;SDS_P2;PMS_P1;PMS_P2;Temp;Humidity;BMP_temperature;BMP_pressure;BME280_temperature;BME280_humidity;BME280_pressure;Samples;Min_cycle;Max_cycle;Signal;HPM_P1;HPM_P2
2023/06/15 00:00:09;;;;;;;10.07;6.80;;;;;;;21.04;100.00;101267.50;2064509;28;20205;-75
2023/06/15 00:01:11;;;;;;;12.37;5.93;;;;;;;21.12;100.00;101281.97;2064092;28;20710;-75
2023/06/15 00:02:12;;;;;;;11.83;5.47;;;;;;;21.12;100.00;101279.13;2064041;28;20193;-75
2023/06/15 00:03:12;;;;;;;11.03;5.40;;;;;;;21.12;100.00;101281.97;2064659;28;20205;-75
2023/06/15 00:04:13;;;;;;;8.10;5.50;;;;;;;20.20;100.00;101139.88;2065266;28;20592;-75
2023/06/15 00:05:13;;;;;;;10.43;5.80;;;;;;;21.01;100.00;101264.88;2064342;28;20225;-74
2023/06/15 00:06:14;;;;;;;10.33;5.67;;;;;;;21.12;100.00;101279.94;2064906;28;20273;-74
2023/06/15 00:07:14;;;;;;;10.97;5.53;;;;;;;21.13;100.00;101283.53;2056353;28;20580;-75
2023/06/15 00:08:15;;;;;;;15.40;6.27;;;;;;;21.13;100.00;101280.72;2058620;28;20554;-74
2023/06/15 00:09:15;;;;;;;10.33;5.67;;;;;;;21.14;100.00;101279.44;2063981;28;20229;-75
2023/06/15 00:10:16;;;;;;;10.47;6.33;;;;;;;21.11;100.00;101272.75;2062805;28;20256;-74
2023/06/15 00:11:16;;;;;;;12.43;5.90;;;;;;;21.13;100.00;101277.91;2064191;28;20202;-75
2023/06/15 00:12:17;;;;;;;8.00;6.13;;;;;;;21.14;100.00;101274.56;2059186;28;20190;-75
2023/06/15 00:13:17;;;;;;;9.43;5.90;;;;;;;21.06;100.00;101267.00;2065162;28;20182;-75
2023/06/15 00:14:18;;;;;;;10.50;6.03;;;;;;;20.69;100.00;101204.69;2057984;28;20391;-75
2023/06/15 00:15:18;;;;;;;8.80;5.73;;;;;;;21.05;100.00;101254.19;2064179;28;20660;-75
2023/06/15 00:16:18;;;;;;;9.60;5.80;;;;;;;19.99;100.00;101093.19;2064771;28;20668;-75
2023/06/15 00:17:21;;;;;;;11.80;6.40;;;;;;;21.12;100.00;101271.47;2063368;28;20204;-74
2023/06/15 00:18:21;;;;;;;10.53;6.10;;;;;;;20.02;100.00;101123.19;2065012;28;20710;-74
2023/06/15 00:19:22;;;;;;;9.53;6.30;;;;;;;21.12;100.00;101276.31;2063535;28;20664;-75
2023/06/15 00:20:28;;;;;;;10.80;6.10;;;;;;;21.12;100.00;101267.88;2058438;28;20183;-74
2023/06/15 00:21:30;;;;;;;10.23;5.67;;;;;;;21.13;100.00;101269.44;2064352;28;20186;-74
2023/06/15 00:22:31;;;;;;;12.33;6.40;;;;;;;21.14;100.00;101268.16;2059867;28;20273;-75
2023/06/15 00:23:32;;;;;;;11.97;5.97;;;;;;;21.14;100.00;101268.16;2065337;28;20174;-75
2023/06/15 00:24:33;;;;;;;9.83;6.63;;;;;;;21.11;100.00;101269.94;2065017;28;20196;-75
2023/06/15 00:25:33;;;;;;;11.97;6.30;;;;;;;21.14;100.00;101265.34;2064514;28;20190;-75
2023/06/15 00:26:33;;;;;;;9.87;6.47;;;;;;;20.99;100.00;101248.47;2064862;28;20206;-75
2023/06/15 00:27:35;;;;;;;11.10;6.57;;;;;;;21.11;100.00;101266.31;2063416;28;20202;-75
2023/06/15 00:28:35;;;;;;;12.80;6.93;;;;;;;21.10;100.00;101261.97;2063640;28;20218;-74
2023/06/15 00:29:35;;;;;;;12.27;7.13;;;;;;;21.10;100.00;101259.94;2064812;28;20194;-74
2023/06/15 00:30:36;;;;;;;11.53;6.30;;;;;;;21.09;100.00;101266.81;2063057;28;20649;-74
2023/06/15 00:31:36;;;;;;;13.93;7.03;;;;;;;20.72;100.00;101208.56;2064800;28;20206;-74
2023/06/15 00:32:37;;;;;;;8.23;6.60;;;;;;;20.88;100.00;101224.97;2064875;28;20202;-74
2023/06/15 00:33:38;;;;;;;13.20;6.73;;;;;;;21.08;100.00;101262.44;2064366;28;20186;-74
2023/06/15 00:34:38;;;;;;;12.30;6.83;;;;;;;21.10;100.00;101262.75;2065078;28;20178;-74
2023/06/15 00:35:38;;;;;;;12.23;6.57;;;;;;;21.05;100.00;101252.16;2063542;28;20297;-74
2023/06/15 00:36:39;;;;;;;9.63;6.53;;;;;;;21.00;100.00;101246.44;2063632;28;20644;-74
2023/06/15 00:37:39;;;;;;;12.70;6.50;;;;;;;21.10;100.00;101268.38;2062315;28;20630;-74
2023/06/15 00:38:40;;;;;;;12.97;6.70;;;;;;;21.09;100.00;101263.22;2056884;28;20250;-74
2023/06/15 00:39:40;;;;;;;11.43;6.23;;;;;;;21.09;100.00;101263.97;2064951;28;20178;-74
2023/06/15 00:40:41;;;;;;;8.83;6.60;;;;;;;21.08;100.00;101267.31;2063980;28;20577;-74
2023/06/15 00:41:42;;;;;;;12.00;6.43;;;;;;;21.10;100.00;101267.59;2064179;28;20206;-74
2023/06/15 00:42:44;;;;;;;10.80;7.17;;;;;;;21.01;100.00;101254.41;2060959;28;20232;-74
2023/06/15 00:43:45;;;;;;;15.23;6.40;;;;;;;21.01;100.00;101251.59;2060914;28;20204;-74
2023/06/15 00:44:45;;;;;;;13.10;6.80;;;;;;;21.07;100.00;101254.47;2064587;28;20204;-74
2023/06/15 00:45:46;;;;;;;12.20;6.27;;;;;;;20.96;100.00;101252.28;2064492;28;20187;-74
2023/06/15 00:46:46;;;;;;;10.87;6.73;;;;;;;21.03;100.00;101256.72;2064457;28;20273;-73
2023/06/15 00:47:47;;;;;;;10.70;6.70;;;;;;;21.05;100.00;101257.00;2064444;28;20192;-74
2023/06/15 00:48:47;;;;;;;15.50;7.30;;;;;;;21.01;100.00;101248.75;2063036;28;20304;-74
2023/06/15 00:49:48;;;;;;;13.90;7.27;;;;;;;21.01;100.00;101251.59;2063923;28;20218;-74
2023/06/15 00:50:49;;;;;;;12.47;6.57;;;;;;;21.01;100.00;101250.78;2060276;28;20636;-74
2023/06/15 00:51:50;;;;;;;12.17;6.50;;;;;;;20.99;100.00;101250.53;2060938;28;20544;-74
2023/06/15 00:52:52;;;;;;;10.97;6.43;;;;;;;20.92;100.00;101243.25;2060342;28;20594;-74
2023/06/15 00:53:52;;;;;;;11.10;6.07;;;;;;;20.91;100.00;101243.72;2064517;28;20277;-74
2023/06/15 00:54:53;;;;;;;11.70;6.43;;;;;;;20.86;100.00;101238.75;2064186;28;20418;-74
2023/06/15 00:55:53;;;;;;;12.67;6.83;;;;;;;20.95;100.00;101253.53;2065187;28;20222;-74
2023/06/15 00:56:55;;;;;;;12.27;6.40;;;;;;;20.97;100.00;101255.84;2063710;28;20260;-74
2023/06/15 00:57:56;;;;;;;11.50;6.33;;;;;;;20.85;100.00;101234.38;2063477;28;20663;-74
2023/06/15 00:58:57;;;;;;;8.87;6.63;;;;;;;21.00;100.00;101252.84;2071068;28;20866;-74
2023/06/15 00:59:57;;;;;;;12.80;7.07;;;;;;;21.03;100.00;101251.84;2071476;28;20200;-74
2023/06/15 01:00:59;;;;;;;9.97;7.10;;;;;;;20.88;100.00;101230.59;2058298;28;20273;-74
2023/06/15 01:01:59;;;;;;;14.47;6.93;;;;;;;21.01;100.00;101251.59;2062660;28;20186;-74
2023/06/15 01:03:02;;;;;;;11.77;6.93;;;;;;;21.04;100.00;101252.66;2057410;28;20450;-74
2023/06/15 01:04:03;;;;;;;12.83;6.77;;;;;;;21.00;100.00;101252.84;2064809;28;20206;-74
2023/06/15 01:05:03;;;;;;;11.57;7.17;;;;;;;20.99;100.00;101254.09;2057987;28;20577;-74
2023/06/15 01:06:13;;;;;;;11.13;6.20;;;;;;;20.91;100.00;101236.06;2064533;28;20190;-74
2023/06/15 01:07:13;;;;;;;13.87;6.23;;;;;;;20.90;100.00;101242.16;2062551;28;20284;-74
2023/06/15 01:08:15;;;;;;;19.47;6.50;;;;;;;20.93;100.00;101246.84;2062198;28;20532;-74
2023/06/15 01:09:16;;;;;;;9.27;6.83;;;;;;;20.94;100.00;101246.34;2064030;28;20221;-74
2023/06/15 01:10:20;;;;;;;12.07;6.90;;;;;;;20.91;100.00;101240.91;2063566;28;20445;-74
2023/06/15 01:11:22;;;;;;;14.33;6.90;;;;;;;20.97;100.00;101250.22;2063714;28;20186;-74
2023/06/15 01:12:24;;;;;;;10.63;6.73;;;;;;;20.97;100.00;101247.41;2058202;28;20808;-74
2023/06/15 01:13:26;;;;;;;14.30;6.70;;;;;;;20.95;100.00;101250.72;2063266;28;20430;-74
2023/06/15 01:14:28;;;;;;;12.17;6.57;;;;;;;20.93;100.00;101246.84;2064123;28;20429;-74
2023/06/15 01:15:29;;;;;;;9.53;6.37;;;;;;;20.83;100.00;101237.69;2064644;28;20719;-74
2023/06/15 01:16:40;;;;;;;10.27;6.33;;;;;;;20.97;100.00;101253.81;2061310;28;20642;-75
2023/06/15 01:17:45;;;;;;;12.43;6.37;;;;;;;20.99;100.00;101245.63;2063311;28;20213;-74
2023/06/15 01:18:47;;;;;;;14.40;6.33;;;;;;;20.79;100.00;101219.44;2071424;28;20238;-75
2023/06/15 01:19:57;;;;;;;11.80;6.33;;;;;;;20.97;100.00;101239.72;2065409;28;20291;-74
2023/06/15 01:21:01;;;;;;;10.77;5.90;;;;;;;20.96;100.00;101243.81;2067529;28;20193;-74
2023/06/15 01:22:14;;;;;;;10.57;6.33;;;;;;;20.94;100.00;101242.75;2063999;28;20202;-74
2023/06/15 01:23:55;;;;;;;14.27;7.00;;;;;;;20.93;100.00;101241.22;2064214;28;20256;-74
2023/06/15 01:25:04;;;;;;;10.57;6.07;;;;;;;20.93;100.00;101239.16;2056778;28;20162;-74
2023/06/15 01:26:07;;;;;;;11.27;5.93;;;;;;;20.94;100.00;101248.38;2062595;28;20667;-74
2023/06/15 01:27:09;;;;;;;8.43;6.07;;;;;;;20.94;100.00;101245.56;2064141;28;20187;-74
2023/06/15 01:28:11;;;;;;;9.87;5.93;;;;;;;20.96;100.00;101241.00;2064213;28;20190;-74
2023/06/15 01:29:13;;;;;;;18.03;7.63;;;;;;;20.95;100.00;101242.28;2064117;28;20252;-74
2023/06/15 01:30:13;;;;;;;13.23;6.33;;;;;;;20.93;100.00;101241.22;2063749;28;20767;-74
2023/06/15 01:31:14;;;;;;;10.87;5.80;;;;;;;20.83;100.00;101229.22;2063168;28;20744;-74
2023/06/15 01:32:15;;;;;;;10.93;6.00;;;;;;;20.93;100.00;101235.56;2063840;28;20233;-74
2023/06/15 01:33:16;;;;;;;13.63;6.57;;;;;;;20.91;100.00;101233.22;2064554;28;20277;-74
2023/06/15 01:34:16;;;;;;;12.10;6.87;;;;;;;20.93;100.00;101233.50;2063873;28;20252;-74
2023/06/15 01:35:16;;;;;;;10.70;6.30;;;;;;;20.95;100.00;101239.44;2063891;28;20640;-74
2023/06/15 01:36:18;;;;;;;14.90;6.50;;;;;;;20.97;100.00;101233.31;2064542;28;20186;-74
2023/06/15 01:37:19;;;;;;;10.67;6.33;;;;;;;20.95;100.00;101233.81;2062673;28;20195;-74
2023/06/15 01:38:22;;;;;;;12.03;6.30;;;;;;;20.94;100.00;101226.59;2064318;28;20452;-74
2023/06/15 01:39:23;;;;;;;10.67;6.20;;;;;;;20.93;100.00;101230.69;2064147;28;20722;-74
2023/06/15 01:40:23;;;;;;;14.40;6.57;;;;;;;20.94;100.00;101226.59;2064111;28;20883;-74
2023/06/15 01:41:25;;;;;;;12.40;6.33;;;;;;;20.97;100.00;101228.47;2062521;28;20208;-75
2023/06/15 01:42:26;;;;;;;12.03;6.00;;;;;;;20.09;100.00;101086.25;2063701;28;20181;-74
2023/06/15 01:43:31;;;;;;;13.00;6.70;;;;;;;20.96;100.00;101221.28;2057185;28;20441;-74
2023/06/15 01:44:31;;;;;;;10.87;5.63;;;;;;;20.92;100.00;101226.34;2064341;28;20182;-74
2023/06/15 01:45:34;;;;;;;11.80;6.10;;;;;;;20.92;100.00;101225.53;2063436;28;21000;-74
2023/06/15 01:46:35;;;;;;;10.73;6.17;;;;;;;20.93;100.00;101225.06;2069271;28;20205;-74
2023/06/15 01:47:37;;;;;;;15.07;6.40;;;;;;;20.38;100.00;101139.69;2063334;28;20453;-74
2023/06/15 01:48:38;;;;;;;12.47;6.53;;;;;;;20.64;100.00;101180.03;2064137;28;20570;-74
2023/06/15 01:49:40;;;;;;;13.60;6.30;;;;;;;20.77;100.00;101202.25;2059975;28;20467;-74
2023/06/15 01:50:41;;;;;;;13.83;6.23;;;;;;;20.93;100.00;101227.13;2061429;28;20554;-74
2023/06/15 01:51:42;;;;;;;16.53;7.10;;;;;;;20.92;100.00;101226.34;2067549;28;20955;-74
2023/06/15 01:52:42;;;;;;;17.60;6.27;;;;;;;20.91;100.00;101221.19;2064696;28;20802;-74
2023/06/15 01:53:43;;;;;;;13.53;6.43;;;;;;;20.91;100.00;101233.22;2062356;28;20644;-74
2023/06/15 01:54:44;;;;;;;13.07;6.40;;;;;;;20.92;100.00;101220.69;2064532;28;20189;-75
2023/06/15 01:55:44;;;;;;;18.00;6.77;;;;;;;20.91;100.00;101221.97;2064065;28;20851;-74
2023/06/15 01:56:45;;;;;;;10.60;6.23;;;;;;;20.92;100.00;101222.72;2064190;28;20273;-74
2023/06/15 01:57:46;;;;;;;15.60;6.10;;;;;;;20.86;100.00;101210.56;2063426;28;20206;-74
2023/06/15 01:58:47;;;;;;;18.60;6.53;;;;;;;20.90;100.00;101211.97;2064257;28;20209;-74
2023/06/15 01:59:47;;;;;;;13.17;6.47;;;;;;;20.91;100.00;101213.50;2063852;28;20475;-75
2023/06/15 02:00:48;;;;;;;15.00;6.27;;;;;;;20.91;100.00;101215.53;2063264;28;20489;-74
2023/06/15 02:01:48;;;;;;;18.17;6.60;;;;;;;20.90;100.00;101222.44;2063776;28;20202;-74
2023/06/15 02:02:49;;;;;;;14.00;6.67;;;;;;;20.84;100.00;101219.53;2064264;28;20186;-74
2023/06/15 02:03:53;;;;;;;20.70;6.60;;;;;;;20.85;100.00;101223.91;2060418;28;20571;-74
2023/06/15 02:04:53;;;;;;;12.93;6.33;;;;;;;20.86;100.00;101216.19;2062136;28;20193;-74
2023/06/15 02:05:53;;;;;;;11.73;6.73;;;;;;;20.84;100.00;101215.94;2059771;28;20837;-74
2023/06/15 02:06:54;;;;;;;13.80;6.50;;;;;;;20.79;100.00;101206.13;2062033;28;20198;-75
2023/06/15 02:07:54;;;;;;;12.23;6.73;;;;;;;20.92;100.00;101219.91;2068566;28;20238;-74
2023/06/15 02:08:55;;;;;;;16.73;6.90;;;;;;;20.89;100.00;101221.69;2063490;28;20277;-74
2023/06/15 02:09:55;;;;;;;8.10;6.40;;;;;;;20.89;100.00;101218.06;2063476;28;20567;-74
2023/06/15 02:10:56;;;;;;;12.87;7.50;;;;;;;20.89;100.00;101218.88;2063631;28;20214;-74
2023/06/15 02:11:57;;;;;;;11.23;6.33;;;;;;;20.89;100.00;101218.06;2064163;28;20256;-75
2023/06/15 02:12:57;;;;;;;16.07;6.57;;;;;;;20.90;100.00;101228.09;2063231;28;20194;-74
2023/06/15 02:13:59;;;;;;;18.27;7.20;;;;;;;20.86;100.00;101211.34;2061020;28;20200;-74
2023/06/15 02:15:01;;;;;;;12.87;6.57;;;;;;;20.93;100.00;101224.31;2062663;28;20648;-74
2023/06/15 02:16:02;;;;;;;15.53;7.10;;;;;;;20.91;100.00;101219.16;2064049;28;20206;-74
2023/06/15 02:17:03;;;;;;;12.90;6.73;;;;;;;20.88;100.00;101217.28;2064113;28;20237;-74
2023/06/15 02:18:11;;;;;;;14.43;6.27;;;;;;;20.95;100.00;101219.72;2063114;28;20238;-74
2023/06/15 02:19:12;;;;;;;14.30;6.57;;;;;;;20.90;100.00;101217.59;2063661;28;20174;-74
2023/06/15 02:20:12;;;;;;;16.20;6.90;;;;;;;20.91;100.00;101219.16;2056017;28;20175;-74
2023/06/15 02:21:13;;;;;;;14.27;6.80;;;;;;;20.61;100.00;101169.75;2063388;28;20193;-74
2023/06/15 02:22:15;;;;;;;9.07;6.67;;;;;;;20.94;100.00;101218.16;2064257;28;20245;-74
2023/06/15 02:23:17;;;;;;;11.97;6.57;;;;;;;20.89;100.00;101209.59;2063533;28;20288;-74
2023/06/15 02:24:18;;;;;;;10.93;7.40;;;;;;;20.93;100.00;101221.47;2064047;28;20635;-74
2023/06/15 02:25:19;;;;;;;13.80;6.63;;;;;;;20.90;100.00;101242.16;2063278;28;20193;-74
2023/06/15 02:26:19;;;;;;;13.03;6.47;;;;;;;20.91;100.00;101219.16;2064208;28;20202;-74
2023/06/15 02:27:20;;;;;;;18.50;6.73;;;;;;;20.92;100.00;101214.28;2063188;28;20257;-74
2023/06/15 02:28:20;;;;;;;11.67;6.60;;;;;;;20.83;100.00;101209.50;2063192;28;20186;-74
2023/06/15 02:29:20;;;;;;;9.57;6.10;;;;;;;20.85;100.00;101215.44;2064206;28;20187;-74
2023/06/15 02:30:21;;;;;;;16.60;6.67;;;;;;;20.81;100.00;101211.25;2063622;28;20713;-74
2023/06/15 02:31:22;;;;;;;14.70;7.03;;;;;;;20.74;100.00;101217.31;2063252;28;20209;-75
2023/06/15 02:32:34;;;;;;;12.80;6.83;;;;;;;20.85;100.00;101215.44;2058717;28;20218;-74
2023/06/15 02:33:35;;;;;;;14.40;6.30;;;;;;;20.81;100.00;101216.91;2057766;28;20732;-75
2023/06/15 02:34:36;;;;;;;13.03;6.60;;;;;;;20.84;100.00;101213.13;2062280;28;20881;-74
2023/06/15 02:35:37;;;;;;;21.10;6.90;;;;;;;20.85;100.00;101211.84;2067023;28;20194;-74
2023/06/15 02:36:37;;;;;;;16.77;6.83;;;;;;;20.84;100.00;101221.56;2063593;28;20179;-74
2023/06/15 02:37:39;;;;;;;11.83;6.47;;;;;;;20.85;100.00;101218.25;2063196;28;20178;-74
2023/06/15 02:38:40;;;;;;;10.97;6.50;;;;;;;20.89;100.00;101213.25;2064445;28;20180;-74
2023/06/15 02:39:41;;;;;;;9.50;6.13;;;;;;;20.87;100.00;101212.16;2056014;28;20641;-74
2023/06/15 02:40:41;;;;;;;12.50;6.63;;;;;;;20.30;100.00;101129.28;2060192;28;20186;-74
2023/06/15 02:41:41;;;;;;;10.40;6.27;;;;;;;20.87;100.00;101214.97;2063601;28;20182;-74
2023/06/15 02:42:42;;;;;;;14.33;6.63;;;;;;;20.71;100.00;101190.88;2064338;28;20641;-74
2023/06/15 02:43:42;;;;;;;13.17;6.43;;;;;;;20.84;100.00;101213.91;2057351;28;20642;-74
2023/06/15 02:44:43;;;;;;;13.50;6.83;;;;;;;20.86;100.00;101214.19;2063218;28;20188;-74
2023/06/15 02:45:43;;;;;;;11.90;6.07;;;;;;;20.86;100.00;101204.94;2063599;28;20186;-74
2023/06/15 02:46:44;;;;;;;9.37;6.50;;;;;;;20.87;100.00;101217.78;2063841;28;20206;-74
2023/06/15 02:47:45;;;;;;;12.23;6.90;;;;;;;20.87;100.00;101218.53;2055764;28;20185;-74
2023/06/15 02:48:51;;;;;;;15.27;6.43;;;;;;;19.89;100.00;101060.03;2062829;28;20275;-74
2023/06/15 02:49:52;;;;;;;14.53;7.20;;;;;;;20.89;100.00;101207.59;2063630;28;20194;-74
2023/06/15 02:50:52;;;;;;;13.47;7.17;;;;;;;20.90;100.00;101217.59;2062969;28;20198;-74
2023/06/15 02:51:52;;;;;;;15.27;6.90;;;;;;;20.89;100.00;101207.59;2060666;28;20707;-75
2023/06/15 02:52:53;;;;;;;12.77;6.80;;;;;;;20.90;100.00;101205.53;2063673;28;20574;-74
2023/06/15 02:53:53;;;;;;;15.43;7.00;;;;;;;20.92;100.00;101206.59;2060676;28;20556;-74
2023/06/15 02:54:54;;;;;;;11.47;6.90;;;;;;;20.93;100.00;101210.22;2062881;28;20630;-74
2023/06/15 02:55:54;;;;;;;10.87;6.70;;;;;;;20.92;100.00;101211.44;2064396;28;20193;-74
2023/06/15 02:56:55;;;;;;;13.67;7.37;;;;;;;20.94;100.00;101203.31;2063727;28;20194;-74
2023/06/15 02:57:56;;;;;;;12.33;6.90;;;;;;;20.93;100.00;101204.59;2062919;28;20632;-74
2023/06/15 02:58:57;;;;;;;11.40;7.07;;;;;;;20.91;100.00;101201.47;2059735;28;20191;-75
2023/06/15 02:59:58;;;;;;;16.23;6.70;;;;;;;20.91;100.00;101199.44;2059713;28;20201;-74
2023/06/15 03:01:00;;;;;;;15.47;7.70;;;;;;;20.78;100.00;101186.91;2059676;28;20197;-74
2023/06/15 03:02:04;;;;;;;16.77;7.73;;;;;;;20.93;100.00;101210.22;2058491;28;20182;-74
2023/06/15 03:03:04;;;;;;;9.27;7.70;;;;;;;20.93;100.00;101210.97;2063794;28;20186;-74
2023/06/15 03:04:13;;;;;;;12.27;7.57;;;;;;;20.91;100.00;101202.25;2064000;28;20355;-75
2023/06/15 03:05:13;;;;;;;12.27;7.57;;;;;;;20.92;100.00;101209.44;2061886;28;20236;-74
2023/06/15 03:06:17;;;;;;;11.40;6.87;;;;;;;20.90;100.00;101205.53;2064064;28;20233;-74
2023/06/15 03:07:20;;;;;;;10.20;7.60;;;;;;;20.86;100.00;101213.38;2063292;28;20628;-74
2023/06/15 03:08:24;;;;;;;13.57;7.20;;;;;;;20.88;100.00;101210.88;2063977;28;20943;-74
2023/06/15 03:09:26;;;;;;;13.67;7.43;;;;;;;20.87;100.00;101204.44;2061798;28;20477;-74
2023/06/15 03:10:26;;;;;;;15.20;7.67;;;;;;;20.26;100.00;101112.59;2062013;28;20433;-75
2023/06/15 03:11:27;;;;;;;15.90;7.07;;;;;;;20.58;100.00;101165.06;2063234;28;20441;-74
2023/06/15 03:12:27;;;;;;;12.00;7.27;;;;;;;19.99;100.00;101076.31;2063167;28;20198;-75
2023/06/15 03:13:29;;;;;;;13.67;7.87;;;;;;;20.87;100.00;101210.09;2076020;28;20212;-75
2023/06/15 03:14:29;;;;;;;12.17;7.60;;;;;;;20.87;100.00;101201.63;2079071;28;20258;-75
2023/06/15 03:15:30;;;;;;;15.37;8.33;;;;;;;20.87;100.00;101204.44;2063294;28;20422;-74
2023/06/15 03:16:32;;;;;;;14.67;7.27;;;;;;;20.88;100.00;101208.06;2063952;28;20277;-74
2023/06/15 03:17:34;;;;;;;11.87;7.67;;;;;;;20.87;100.00;101201.63;2062793;28;20225;-74
2023/06/15 03:18:35;;;;;;;14.83;7.60;;;;;;;20.83;100.00;101200.31;2063848;28;20190;-74
2023/06/15 03:19:36;;;;;;;16.07;8.30;;;;;;;20.61;100.00;101166.13;2063235;28;20485;-74
2023/06/15 03:20:37;;;;;;;13.40;7.47;;;;;;;20.92;100.00;101212.25;2062776;28;20205;-74
2023/06/15 03:21:39;;;;;;;15.50;7.70;;;;;;;20.91;100.00;101207.88;2063500;28;20481;-74
2023/06/15 03:22:40;;;;;;;11.97;6.90;;;;;;;20.16;100.00;101093.53;2065328;28;20439;-74
2023/06/15 03:23:42;;;;;;;11.93;7.23;;;;;;;20.94;100.00;101201.25;2065656;28;20686;-74
2023/06/15 03:24:43;;;;;;;11.17;7.00;;;;;;;20.97;100.00;101205.91;2065127;28;20722;-74
2023/06/15 03:25:44;;;;;;;16.37;7.00;;;;;;;20.82;100.00;101181.84;2065457;28;20958;-74
2023/06/15 03:26:45;;;;;;;15.00;7.07;;;;;;;20.96;100.00;101198.72;2065222;28;20807;-74
2023/06/15 03:27:48;;;;;;;15.47;6.57;;;;;;;20.96;100.00;101204.38;2064694;28;20744;-74
2023/06/15 03:28:52;;;;;;;16.77;8.33;;;;;;;20.59;100.00;101146.94;2061839;28;20207;-74
2023/06/15 03:29:54;;;;;;;13.33;6.83;;;;;;;20.97;100.00;101199.50;2063516;28;20457;-74
2023/06/15 03:30:56;;;;;;;18.53;7.40;;;;;;;20.45;100.00;101133.66;2064385;28;20472;-75
2023/06/15 03:31:58;;;;;;;13.90;7.60;;;;;;;20.71;100.00;101185.25;2065406;28;20484;-74
2023/06/15 03:32:59;;;;;;;15.87;7.63;;;;;;;20.82;100.00;101190.31;2062577;28;20445;-74
2023/06/15 03:34:00;;;;;;;16.97;7.00;;;;;;;20.83;100.00;101197.47;2064167;28;20445;-74
2023/06/15 03:35:03;;;;;;;18.17;7.37;;;;;;;20.81;100.00;101202.81;2065343;28;20463;-74
2023/06/15 03:36:03;;;;;;;16.47;7.80;;;;;;;20.71;100.00;101188.06;2078480;28;20276;-75
2023/06/15 03:37:05;;;;;;;12.67;7.40;;;;;;;20.75;100.00;101196.31;2080012;28;20443;-75
2023/06/15 03:38:06;;;;;;;15.20;6.87;;;;;;;20.75;100.00;101201.94;2064356;28;20871;-75
2023/06/15 03:39:06;;;;;;;12.73;7.37;;;;;;;20.65;100.00;101186.44;2065192;28;20911;-74
2023/06/15 03:40:08;;;;;;;18.50;7.30;;;;;;;20.73;100.00;101198.84;2064447;28;20198;-74
2023/06/15 03:41:08;;;;;;;18.10;7.40;;;;;;;20.68;100.00;101203.13;2064056;28;20280;-75
2023/06/15 03:42:10;;;;;;;16.83;8.00;;;;;;;20.64;100.00;101191.31;2065009;28;20417;-75
2023/06/15 03:43:11;;;;;;;14.30;8.07;;;;;;;20.71;100.00;101201.38;2065048;28;20190;-75
2023/06/15 03:44:12;;;;;;;15.20;7.47;;;;;;;20.71;100.00;101204.97;2065729;28;20957;-75
2023/06/15 03:45:13;;;;;;;16.57;7.50;;;;;;;20.64;100.00;101196.94;2064564;28;20444;-74
2023/06/15 03:46:14;;;;;;;15.83;7.80;;;;;;;20.72;100.00;101209.34;2059637;28;20298;-74
2023/06/15 03:47:14;;;;;;;13.40;7.60;;;;;;;20.76;100.00;101206.31;2077172;28;20455;-75
2023/06/15 03:48:15;;;;;;;17.30;7.50;;;;;;;20.76;100.00;101209.13;2080691;28;20642;-74
2023/06/15 03:49:15;;;;;;;16.23;7.87;;;;;;;20.76;100.00;101214.75;2065093;28;20233;-75
2023/06/15 03:50:15;;;;;;;14.87;7.70;;;;;;;20.71;100.00;101215.44;2064861;28;20556;-75
2023/06/15 03:51:16;;;;;;;15.20;7.90;;;;;;;20.74;100.00;101212.47;2064173;28;20209;-75
2023/06/15 03:52:16;;;;;;;16.17;7.80;;;;;;;20.77;100.00;101216.34;2065328;28;20244;-75
2023/06/15 03:53:17;;;;;;;20.60;7.97;;;;;;;20.78;100.00;101220.72;2060273;28;20197;-75
2023/06/15 03:54:17;;;;;;;16.03;7.70;;;;;;;20.80;100.00;101221.78;2065039;28;20586;-75
2023/06/15 03:55:18;;;;;;;17.33;7.60;;;;;;;20.77;100.00;101216.34;2064944;28;20640;-74
2023/06/15 03:56:18;;;;;;;16.20;8.10;;;;;;;20.84;100.00;101224.38;2059551;28;20222;-75
2023/06/15 03:57:19;;;;;;;13.93;7.73;;;;;;;20.86;100.00;101210.56;2062558;28;20194;-72
2023/06/15 03:58:19;;;;;;;9.63;5.70;;;;;;;20.91;100.00;101210.69;2064708;28;20269;-57
2023/06/15 03:59:20;;;;;;;13.00;6.40;;;;;;;21.11;100.00;101201.50;2065357;28;20182;-57
2023/06/15 04:00:20;;;;;;;15.03;6.93;;;;;;;21.34;100.00;101209.00;2065002;28;20222;-58
2023/06/15 04:01:22;;;;;;;5.83;4.77;;;;;;;21.33;100.00;101213.84;2058782;28;20191;-57
2023/06/15 04:02:22;;;;;;;10.63;6.07;;;;;;;21.51;100.00;101198.72;2065327;28;20220;-57
2023/06/15 04:03:23;;;;;;;11.67;5.80;;;;;;;21.51;100.00;101199.50;2065053;28;20460;-56
2023/06/15 04:04:23;;;;;;;11.80;6.40;;;;;;;21.53;100.00;101199.78;2060761;28;20573;-59
2023/06/15 04:05:24;;;;;;;10.20;5.93;;;;;;;21.56;100.00;101203.66;2064124;28;20198;-59
2023/06/15 04:06:24;;;;;;;12.33;6.70;;;;;;;21.79;100.00;101197.81;2062438;28;20194;-60
2023/06/15 04:07:28;;;;;;;13.17;6.83;;;;;;;21.95;100.00;101190.81;2063335;28;20616;-58
2023/06/15 04:08:28;;;;;;;13.83;7.00;;;;;;;21.84;100.00;101185.03;2057443;28;20186;-57
2023/06/15 04:09:29;;;;;;;18.83;6.57;;;;;;;21.78;100.00;101189.81;2065061;28;20825;-58
2023/06/15 04:10:29;;;;;;;17.20;7.50;;;;;;;21.75;100.00;101196.47;2064628;28;20197;-57
2023/06/15 04:11:30;;;;;;;17.17;7.60;;;;;;;21.78;100.00;101199.09;2064783;28;20202;-57
2023/06/15 04:12:30;;;;;;;23.53;8.43;;;;;;;21.34;100.00;101147.00;2065096;28;20716;-58
2023/06/15 04:13:31;;;;;;;23.17;7.23;;;;;;;21.82;100.00;101201.69;2063817;28;20554;-57
2023/06/15 04:14:31;;;;;;;20.77;7.03;;;;;;;21.91;100.00;101193.81;2064046;28;20333;-57
2023/06/15 04:15:32;;;;;;;28.17;6.43;;;;;;;22.00;100.00;101196.50;2064943;28;20615;-57
2023/06/15 04:16:33;;;;;;;15.73;7.00;;;;;;;22.27;100.00;101190.34;2064591;28;20636;-59
2023/06/15 04:17:33;;;;;;;12.87;7.00;;;;;;;22.30;100.00;101189.34;2064857;28;20673;-57
2023/06/15 04:18:34;;;;;;;16.30;7.00;;;;;;;22.04;100.00;101145.47;2065124;28;20471;-58
2023/06/15 04:19:34;;;;;;;13.50;8.83;;;;;;;22.38;100.00;101198.16;2064095;28;20317;-57
2023/06/15 04:20:36;;;;;;;14.67;8.17;;;;;;;22.39;100.00;101200.47;2064100;28;20434;-62
2023/06/15 04:21:39;;;;;;;16.47;8.43;;;;;;;22.34;100.00;101195.56;2064677;28;20234;-59
2023/06/15 04:22:40;;;;;;;18.77;7.90;;;;;;;22.36;100.00;101201.47;2065302;28;20222;-58
2023/06/15 04:23:42;;;;;;;11.03;7.80;;;;;;;22.41;100.00;101205.63;2064738;28;20425;-58
2023/06/15 04:24:42;;;;;;;15.37;8.03;;;;;;;22.39;100.00;101205.34;2065422;28;20190;-58
2023/06/15 04:25:43;;;;;;;12.50;8.20;;;;;;;22.18;100.00;101182.06;2065130;28;20417;-58
2023/06/15 04:26:43;;;;;;;17.13;8.43;;;;;;;22.27;100.00;101204.47;2065675;28;20396;-61
2023/06/15 04:27:44;;;;;;;16.07;8.37;;;;;;;22.32;100.00;101200.16;2064732;28;20217;-59
2023/06/15 04:28:45;;;;;;;14.67;8.47;;;;;;;22.42;100.00;101210.00;2061528;28;20226;-68
2023/06/15 04:29:49;;;;;;;16.33;8.90;;;;;;;22.37;100.00;101199.44;2063698;28;20679;-65
2023/06/15 04:31:04;;;;;;;15.80;8.33;;;;;;;22.39;100.00;101219.47;2063867;28;20206;-66
2023/06/15 04:32:06;;;;;;;13.97;8.83;;;;;;;22.33;100.00;101213.00;2064737;28;20520;-66
2023/06/15 04:33:12;;;;;;;12.47;8.30;;;;;;;22.30;100.00;101214.75;2063784;28;20449;-66
2023/06/15 04:34:15;;;;;;;20.53;9.10;;;;;;;21.90;100.00;101160.47;2064623;28;20194;-70
2023/06/15 04:35:17;;;;;;;12.27;9.03;;;;;;;21.86;100.00;101143.75;2070461;28;20992;-64
2023/06/15 04:36:18;;;;;;;17.17;9.40;;;;;;;22.32;100.00;101222.75;2071134;28;20180;-64
2023/06/15 04:37:18;;;;;;;14.87;9.03;;;;;;;22.31;100.00;101210.66;2058737;28;20190;-70
2023/06/15 04:38:20;;;;;;;16.27;9.30;;;;;;;22.23;100.00;101214.44;2060530;28;21217;-65
2023/06/15 04:39:24;;;;;;;17.40;9.07;;;;;;;22.32;100.00;101217.09;2062747;28;20190;-62